SAWH/USH METAR and TAF weather

Enter ICAO airport designator
Station Type Date Time Source
SAWH METAR 2020/03/31 10:00 UTC NOAA

SAWH 311000Z 23016KT 9999 SCT045 08/05 Q1007


Station Type Date Time Source
SAWH Decoded METAR 2020/03/31 10:00 UTC NOAA

Ushuaia Aerodrome, Argentina (SAWH) 54-48S 068-19W 14M
Mar 31, 2020 - 06:00 AM EDT / 2020.03.31 1000 UTC
Wind: from the SW (230 degrees) at 18 MPH (16 KT):0
Visibility: greater than 7 mile(s):0
Sky conditions: partly cloudy
Temperature: 46 F (8 C)
Dew Point: 41 F (5 C)
Relative Humidity: 81%
Pressure (altimeter): 29.74 in. Hg (1007 hPa)
ob: SAWH 311000Z 23016KT 9999 SCT045 08/05 Q1007
cycle: 10

Station Type Date Time Source
SAWH TAF 2020/03/31 06:33 UTC NOAA

TAF SAWH 310500Z 3106/0106 23015KT 8000 -DZ SCT035 BKN070 TX12/3118Z TN06/3110Z
BECMG 3114/3116 25010KT 9999 NSW SCT030 OVC060
BECMG 3120/3122 VRB03KT 9999 BKN010

Example: see airport list